Time;durP1;ratioP1;P1;durP2;ratioP2;P2;SDS_P1;SDS_P2;PMS_P1;PMS_P2;Temp;Humidity;BMP_temperature;BMP_pressure;BME280_temperature;BME280_humidity;BME280_pressure;Samples;Min_cycle;Max_cycle;Signal;HPM_P1;HPM_P2
2022/12/22 03:27:30;;;;;;;28.52;13.27;;;;;;;-142.75;100.00;76511.25;4994675;28;20333;-67
2022/12/22 03:29:55;;;;;;;27.13;12.43;;;;;;;-142.75;100.00;76505.34;4981303;28;20443;-66
2022/12/22 03:32:21;;;;;;;29.38;14.32;;;;;;;-142.75;100.00;76499.44;4992445;28;20310;-67
2022/12/22 03:34:46;;;;;;;28.38;13.18;;;;;;;-142.75;100.00;76499.44;4986551;28;20315;-67
2022/12/22 03:37:12;;;;;;;25.73;13.20;;;;;;;-142.75;100.00;76491.56;4995831;28;20354;-66
2022/12/22 03:39:37;;;;;;;27.17;13.50;;;;;;;-142.75;100.00;76483.69;4989954;28;20419;-66
2022/12/22 03:47:31;;;;;;;32.10;13.68;;;;;;;-142.75;100.00;76456.13;4987526;28;20866;-66
2022/12/22 03:49:56;;;;;;;26.67;13.15;;;;;;;-142.75;100.00;76464.00;4996259;28;20052;-66
2022/12/22 03:52:22;;;;;;;29.38;12.95;;;;;;;-142.75;100.00;76471.88;4982280;28;20183;-66
2022/12/22 03:54:48;;;;;;;34.13;14.90;;;;;;;-142.75;100.00;76479.75;4987093;28;20357;-66
2022/12/22 03:57:13;;;;;;;32.05;13.63;;;;;;;-142.75;100.00;76471.88;4980812;28;20017;-66
2022/12/22 03:59:39;;;;;;;36.20;14.60;;;;;;;-142.75;100.00;76475.81;4981284;28;20360;-66
2022/12/22 04:02:05;;;;;;;28.27;13.43;;;;;;;-142.75;100.00;76487.63;5001700;28;20178;-66
2022/12/22 04:04:30;;;;;;;29.48;14.55;;;;;;;-142.75;100.00;76491.56;4993170;28;20024;-66
2022/12/22 04:06:56;;;;;;;31.95;13.85;;;;;;;-142.75;100.00;76495.50;4992961;28;20350;-65
2022/12/22 04:09:23;;;;;;;33.30;15.30;;;;;;;-142.75;100.00;76489.59;4986403;28;20027;-66
2022/12/22 04:14:34;;;;;;;39.33;15.43;;;;;;;-142.75;100.00;76479.75;4995045;28;20292;-66
2022/12/22 04:17:00;;;;;;;33.85;14.88;;;;;;;-142.75;100.00;76479.75;4993841;28;20302;-65
2022/12/22 04:19:25;;;;;;;39.70;16.63;;;;;;;-142.75;100.00;76481.72;4986401;28;20131;-66
2022/12/22 04:21:51;;;;;;;41.50;16.33;;;;;;;-142.75;100.00;76481.72;4980447;28;20342;-66
2022/12/22 04:24:16;;;;;;;37.90;16.23;;;;;;;-142.75;100.00;76473.84;4984753;28;20187;-66
2022/12/22 04:26:42;;;;;;;33.42;15.10;;;;;;;-142.75;100.00;76483.69;4996778;28;20404;-66
2022/12/22 04:29:07;;;;;;;32.75;15.25;;;;;;;-142.75;100.00;76481.72;4990616;28;20310;-66
2022/12/22 04:31:33;;;;;;;35.10;15.05;;;;;;;-142.75;100.00;76475.81;4986287;28;20469;-66
2022/12/22 04:33:58;;;;;;;36.50;14.90;;;;;;;-142.75;100.00;76479.75;4996240;28;20113;-65
2022/12/22 04:36:24;;;;;;;38.65;15.55;;;;;;;-142.75;100.00;76485.66;4986236;28;20024;-66
2022/12/22 04:38:49;;;;;;;34.15;15.80;;;;;;;-142.75;100.00;76495.50;4981151;28;20408;-66
2022/12/22 04:41:15;;;;;;;38.90;16.98;;;;;;;-142.75;100.00;76475.81;4991193;28;20318;-66
2022/12/22 04:43:40;;;;;;;37.65;15.32;;;;;;;-142.75;100.00;76481.72;4995054;28;20314;-66
2022/12/22 04:46:06;;;;;;;32.72;15.32;;;;;;;-142.75;100.00;76515.19;4991505;28;20324;-66
2022/12/22 04:48:32;;;;;;;35.80;15.30;;;;;;;-142.75;100.00;76507.31;4990232;28;20303;-66
2022/12/22 04:50:59;;;;;;;37.03;15.70;;;;;;;-142.75;100.00;76511.25;4990092;28;20148;-66
2022/12/22 04:53:26;;;;;;;36.22;16.77;;;;;;;-142.75;100.00;76519.13;4990789;28;20044;-66
2022/12/22 04:55:58;;;;;;;34.13;15.40;;;;;;;-142.75;100.00;76519.13;4994137;28;20024;-66
2022/12/22 04:58:24;;;;;;;38.05;16.10;;;;;;;-142.75;100.00;76515.19;4991938;28;20033;-66
2022/12/22 05:00:49;;;;;;;41.13;17.73;;;;;;;-142.75;100.00;76515.19;4984534;28;20357;-66
2022/12/22 05:03:15;;;;;;;40.80;16.17;;;;;;;-142.75;100.00;76517.16;4993335;28;20442;-66
2022/12/22 05:05:40;;;;;;;38.42;16.70;;;;;;;-142.75;100.00;76534.84;4988061;28;20302;-66
2022/12/22 05:08:06;;;;;;;45.15;17.50;;;;;;;-142.75;100.00;76530.91;4990886;28;20416;-66
2022/12/22 05:10:31;;;;;;;35.15;16.42;;;;;;;-142.75;100.00;76527.00;4990271;28;20346;-66
2022/12/22 05:12:57;;;;;;;39.25;17.35;;;;;;;-142.75;100.00;76544.69;4991563;28;20341;-66
2022/12/22 05:15:34;;;;;;;32.13;15.25;;;;;;;-142.75;100.00;76530.91;4995316;28;20342;-67
2022/12/22 05:18:00;;;;;;;34.40;15.07;;;;;;;-142.75;100.00;76562.41;4997605;28;20190;-66
2022/12/22 05:20:26;;;;;;;33.70;14.93;;;;;;;-142.75;100.00;76570.28;4990464;28;20136;-67
2022/12/22 05:22:52;;;;;;;;;;;;;;;-142.75;100.00;76562.41;4999075;28;20135;-66
2022/12/22 05:25:18;;;;;;;31.27;13.95;;;;;;;-142.75;100.00;76597.84;4980890;28;20272;-67
2022/12/22 05:27:45;;;;;;;36.08;14.40;;;;;;;-142.75;100.00;76599.81;4992114;28;20029;-66
2022/12/22 05:30:12;;;;;;;32.47;14.25;;;;;;;-142.75;100.00;76625.41;4993895;28;20029;-66
2022/12/22 05:32:38;;;;;;;28.63;14.45;;;;;;;-142.75;100.00;76625.41;4991482;28;20021;-66
2022/12/22 05:35:04;;;;;;;32.30;13.90;;;;;;;-142.75;100.00;76625.41;4993355;28;20438;-66
2022/12/22 05:37:30;;;;;;;31.55;14.23;;;;;;;-142.75;100.00;76619.50;4991378;28;20213;-66
2022/12/22 05:39:56;;;;;;;31.75;14.75;;;;;;;-142.75;100.00;76621.47;4993996;28;20334;-66
2022/12/22 05:42:38;;;;;;;24.35;11.80;;;;;;;-142.75;100.00;76627.38;4993777;28;20416;-67
2022/12/22 05:45:13;;;;;;;25.83;12.07;;;;;;;-142.75;100.00;76611.63;4990752;28;20047;-67
2022/12/22 05:47:39;;;;;;;28.90;12.07;;;;;;;-142.75;100.00;76637.22;4980119;28;20033;-67
2022/12/22 05:50:05;;;;;;;;;;;;;;;-142.75;100.00;76637.22;4992972;28;20020;-67
2022/12/22 05:52:31;;;;;;;26.95;11.68;;;;;;;-142.75;100.00;76645.09;4990863;28;20410;-66
2022/12/22 05:54:56;;;;;;;27.38;11.57;;;;;;;-142.75;100.00;76623.44;4980525;28;20472;-67
2022/12/22 05:57:22;;;;;;;29.75;12.10;;;;;;;-142.75;100.00;76629.34;4996177;28;20217;-67
2022/12/22 05:59:48;;;;;;;26.75;11.82;;;;;;;-142.75;100.00;76637.22;4990099;28;20222;-67
2022/12/22 06:02:13;;;;;;;23.63;11.02;;;;;;;-142.75;100.00;76631.31;4984433;28;20323;-66
2022/12/22 06:04:38;;;;;;;21.73;10.60;;;;;;;-142.75;100.00;76639.19;4988241;28;20029;-67
2022/12/22 06:07:04;;;;;;;31.25;11.40;;;;;;;-142.75;100.00;76641.16;4995403;28;20385;-67
2022/12/22 06:09:29;;;;;;;24.00;10.68;;;;;;;-142.75;100.00;76645.09;4993976;28;20341;-67
2022/12/22 06:11:55;;;;;;;19.02;8.75;;;;;;;-142.75;100.00;76651.00;4986566;28;20193;-67
2022/12/22 06:14:21;;;;;;;22.35;9.90;;;;;;;-142.75;100.00;76649.03;4993068;28;20295;-67
2022/12/22 06:16:46;;;;;;;24.33;10.55;;;;;;;-142.75;100.00;76651.00;4993433;28;20347;-67
2022/12/22 06:19:12;;;;;;;21.48;10.38;;;;;;;-142.75;100.00;76678.56;4996731;28;20380;-67
2022/12/22 06:21:37;;;;;;;21.92;11.00;;;;;;;-142.75;100.00;76690.38;4986360;28;20357;-67
2022/12/22 06:24:03;;;;;;;22.83;10.10;;;;;;;-142.75;100.00;76714.00;5004211;28;20369;-67
2022/12/22 06:26:29;;;;;;;24.25;8.98;;;;;;;-142.75;100.00;76700.22;4985513;28;20036;-66
2022/12/22 06:28:54;;;;;;;26.13;11.63;;;;;;;-142.75;100.00;76712.03;4992438;28;20442;-67
2022/12/22 06:31:20;;;;;;;22.63;11.30;;;;;;;-142.75;100.00;76714.00;4991295;28;20304;-67
2022/12/22 06:33:46;;;;;;;23.35;9.45;;;;;;;-142.75;100.00;76719.91;4991238;28;20316;-67
2022/12/22 06:36:12;;;;;;;22.55;10.32;;;;;;;-142.75;100.00;76727.78;4998456;28;20123;-67
2022/12/22 06:38:37;;;;;;;27.92;11.35;;;;;;;-142.75;100.00;76751.41;4983744;28;20195;-67
2022/12/22 06:41:03;;;;;;;28.55;9.88;;;;;;;-142.75;100.00;76751.41;4983827;28;20338;-67
2022/12/22 06:43:28;;;;;;;22.05;9.63;;;;;;;-142.75;100.00;76763.22;4993701;28;20338;-67
2022/12/22 06:45:54;;;;;;;18.40;8.75;;;;;;;-142.75;100.00;76759.28;4983874;28;20449;-67
2022/12/22 06:48:19;;;;;;;20.80;9.18;;;;;;;-142.75;100.00;76763.22;4999851;28;20312;-66
2022/12/22 06:50:45;;;;;;;23.83;8.65;;;;;;;-142.75;100.00;76751.41;4983767;28;20365;-66
2022/12/22 06:53:11;;;;;;;24.85;9.75;;;;;;;-142.75;100.00;76765.19;4992418;28;20334;-65
2022/12/22 06:55:36;;;;;;;;;;;;;;;-142.75;100.00;76765.19;4995111;28;20611;-64
2022/12/22 06:58:02;;;;;;;22.08;8.18;;;;;;;-142.75;100.00;76778.97;4994199;28;19912;-65
2022/12/22 07:00:28;;;;;;;23.60;7.72;;;;;;;-142.75;100.00;76778.97;4995392;28;20021;-65
2022/12/22 07:02:54;;;;;;;25.48;8.18;;;;;;;-142.75;100.00;76788.81;4983015;28;20024;-66
2022/12/22 07:05:19;;;;;;;19.75;8.40;;;;;;;-142.75;100.00;76784.88;4994228;28;20453;-65
2022/12/22 07:07:45;;;;;;;20.73;8.25;;;;;;;-142.75;100.00;76778.97;4985606;28;20071;-66
2022/12/22 07:10:11;;;;;;;18.30;8.15;;;;;;;-142.75;100.00;76788.81;4987168;28;20253;-65
2022/12/22 07:12:36;;;;;;;;;;;;;;;-142.75;100.00;76786.84;4997135;28;20035;-66
2022/12/22 07:15:02;;;;;;;23.05;7.28;;;;;;;-142.75;100.00;76800.63;4998217;28;20225;-65
2022/12/22 07:17:27;;;;;;;17.38;6.68;;;;;;;-142.75;100.00;76820.28;4997179;28;20353;-64
2022/12/22 07:19:53;;;;;;;24.15;7.25;;;;;;;-142.75;100.00;76814.38;4981699;28;20025;-66
2022/12/22 07:22:19;;;;;;;18.00;6.88;;;;;;;-142.75;100.00;76822.25;4984535;28;20475;-66
2022/12/22 07:24:44;;;;;;;14.70;6.47;;;;;;;-142.75;100.00;76832.09;5002725;28;20109;-66
2022/12/22 07:27:10;;;;;;;15.15;6.10;;;;;;;-142.75;100.00;76834.06;4998353;28;20321;-66
2022/12/22 07:29:35;;;;;;;17.02;6.30;;;;;;;-142.75;100.00;76845.88;4986713;28;20318;-66
2022/12/22 07:32:01;;;;;;;16.25;5.82;;;;;;;-142.75;100.00;76851.78;4995979;28;20325;-66
2022/12/22 07:34:27;;;;;;;;;;;;;;;-142.75;100.00;76836.03;4985077;28;20943;-65
2022/12/22 07:36:53;;;;;;;14.13;6.00;;;;;;;-142.75;100.00;76843.91;4993359;28;19912;-65
2022/12/22 07:39:18;;;;;;;15.05;6.35;;;;;;;-142.75;100.00;76853.75;4989772;28;20032;-65
2022/12/22 07:44:28;;;;;;;19.42;6.20;;;;;;;-142.75;100.00;76853.75;4996798;28;20297;-66
2022/12/22 07:46:53;;;;;;;16.83;5.85;;;;;;;-142.75;100.00;76873.44;4981539;28;20850;-65
2022/12/22 07:52:03;;;;;;;12.57;5.22;;;;;;;-142.75;100.00;76885.25;4992206;28;20895;-66
2022/12/22 07:54:29;;;;;;;19.85;5.90;;;;;;;-142.75;100.00;76877.38;4998304;28;20143;-66
2022/12/22 07:56:54;;;;;;;14.55;5.07;;;;;;;-142.75;100.00;76873.44;4994286;28;20199;-66
2022/12/22 07:59:20;;;;;;;16.90;5.85;;;;;;;-142.75;100.00;76889.19;4984507;28;20040;-66
2022/12/22 08:01:46;;;;;;;13.63;4.97;;;;;;;-142.75;100.00;76881.31;5002571;28;20480;-66
2022/12/22 08:04:13;;;;;;;18.63;5.53;;;;;;;-142.75;100.00;76895.09;4984494;28;20139;-67
2022/12/22 08:06:39;;;;;;;12.35;5.18;;;;;;;-142.75;100.00;76893.13;4982071;28;20068;-66
2022/12/22 08:09:06;;;;;;;15.75;6.10;;;;;;;-142.75;100.00;76889.19;4998047;28;20322;-66
2022/12/22 08:11:32;;;;;;;13.00;5.78;;;;;;;-142.75;100.00;76897.06;4996626;28;20541;-66
2022/12/22 08:13:57;;;;;;;13.68;4.75;;;;;;;-142.75;100.00;76904.94;4994290;28;20117;-67
2022/12/22 08:16:23;;;;;;;14.57;4.55;;;;;;;-142.75;100.00;76906.91;5001169;28;20322;-66
2022/12/22 08:18:48;;;;;;;13.65;4.13;;;;;;;-142.75;100.00;76904.94;5017830;22;20039;-66
2022/12/22 08:21:14;;;;;;;10.50;4.65;;;;;;;-142.75;100.00;76906.91;4963988;28;20305;-66
2022/12/22 08:23:40;;;;;;;10.30;4.85;;;;;;;-142.75;100.00;76901.00;4975647;28;20322;-66
2022/12/22 08:26:12;;;;;;;11.55;4.50;;;;;;;-142.75;100.00;76901.00;4962328;28;20334;-66
2022/12/22 08:28:51;;;;;;;14.40;4.82;;;;;;;-142.75;100.00;76897.06;4964449;28;20051;-67
2022/12/22 08:31:18;;;;;;;10.57;4.18;;;;;;;-142.75;100.00;76910.84;4971708;28;20051;-67
2022/12/22 08:33:45;;;;;;;10.73;4.00;;;;;;;-142.75;100.00;76899.03;4972068;28;20133;-67
2022/12/22 08:36:11;;;;;;;8.48;3.47;;;;;;;-142.75;100.00;76904.94;4974236;28;20025;-66
2022/12/22 08:38:38;;;;;;;;;;;;;;;-142.75;100.00;76877.38;4980558;28;20137;-67
2022/12/22 08:41:04;;;;;;;12.67;3.23;;;;;;;-142.75;100.00;76893.13;4984227;28;19948;-67
2022/12/22 08:43:31;;;;;;;9.07;3.50;;;;;;;-142.75;100.00;76889.19;4974869;28;20323;-67
2022/12/22 08:45:57;;;;;;;11.45;4.05;;;;;;;-142.75;100.00;76885.25;4983284;28;20056;-67
2022/12/22 08:48:22;;;;;;;9.25;3.55;;;;;;;-142.75;100.00;76877.38;5027980;28;20158;-66
2022/12/22 08:50:47;;;;;;;6.80;3.20;;;;;;;-142.75;100.00;76873.44;5024288;28;20065;-66
2022/12/22 08:53:13;;;;;;;9.45;3.67;;;;;;;-142.75;100.00;76885.25;5032503;28;20025;-66
2022/12/22 08:55:38;;;;;;;7.78;3.50;;;;;;;-142.75;100.00;76838.00;5029992;28;20025;-66
2022/12/22 08:58:03;;;;;;;10.48;4.10;;;;;;;-142.75;100.00;76802.56;5028566;28;20430;-66
2022/12/22 09:00:29;;;;;;;9.93;4.45;;;;;;;-142.75;100.00;76749.44;5031329;28;20018;-66
2022/12/22 09:02:54;;;;;;;12.27;4.28;;;;;;;-142.75;100.00;76715.97;4991590;28;20339;-67
2022/12/22 09:05:20;;;;;;;7.40;4.05;;;;;;;-142.75;100.00;76668.72;4976436;28;20331;-68
2022/12/22 09:07:47;;;;;;;14.93;4.35;;;;;;;-142.75;100.00;76617.53;4972847;28;20466;-67
2022/12/22 09:10:13;;;;;;;8.38;4.00;;;;;;;-142.75;100.00;76576.19;4980292;28;20033;-67
2022/12/22 09:12:38;;;;;;;9.07;3.65;;;;;;;-142.75;100.00;76544.69;4965338;28;20029;-67
2022/12/22 09:15:07;;;;;;;9.25;4.13;;;;;;;-142.75;100.00;76527.00;4973424;28;20423;-67
2022/12/22 09:17:33;;;;;;;9.55;4.15;;;;;;;-142.75;100.00;76491.56;4974721;28;20082;-66
2022/12/22 09:19:58;;;;;;;15.48;4.35;;;;;;;-142.75;100.00;76465.97;4975432;28;20020;-67
2022/12/22 09:22:24;;;;;;;12.30;4.35;;;;;;;-142.75;100.00;76434.47;4975711;28;20247;-68
2022/12/22 09:24:49;;;;;;;13.15;3.53;;;;;;;-142.75;100.00;76381.31;4980160;28;20456;-67
2022/12/22 09:27:15;;;;;;;6.70;3.25;;;;;;;-142.75;100.00;76341.97;4971316;28;20559;-67
2022/12/22 09:29:40;;;;;;;7.05;3.05;;;;;;;-142.75;100.00;76316.38;4970348;28;20335;-67
2022/12/22 09:32:06;;;;;;;7.85;3.08;;;;;;;-142.75;100.00;76273.06;4972665;28;20430;-67
2022/12/22 09:34:31;;;;;;;7.82;3.65;;;;;;;-142.75;100.00;76227.78;4978123;28;20323;-67
2022/12/22 09:36:57;;;;;;;;;;;;;;;-142.75;100.00;76263.22;4967584;28;20338;-67
2022/12/22 09:39:22;;;;;;;8.82;3.90;;;;;;;-142.75;100.00;76239.59;4968838;28;20227;-67
2022/12/22 09:41:53;;;;;;;8.48;3.45;;;;;;;-142.75;100.00;76243.53;4968755;28;20331;-66
2022/12/22 09:44:24;;;;;;;11.57;4.53;;;;;;;-142.75;100.00;76227.78;4981067;28;20135;-66
2022/12/22 09:46:52;;;;;;;7.72;3.55;;;;;;;-142.75;100.00;76239.59;4989553;28;20059;-67
2022/12/22 09:49:19;;;;;;;8.68;3.25;;;;;;;-142.75;100.00;76245.50;4963762;28;20040;-67
2022/12/22 09:51:57;;;;;;;6.72;3.58;;;;;;;-142.75;100.00;76255.34;4975248;28;20020;-68
2022/12/22 09:54:24;;;;;;;14.88;3.30;;;;;;;-142.75;100.00;76292.75;4987012;28;20257;-68
2022/12/22 09:56:50;;;;;;;10.55;3.33;;;;;;;-142.75;100.00;76265.19;4982283;28;20047;-68
2022/12/22 09:59:19;;;;;;;8.32;4.03;;;;;;;-142.75;100.00;76231.72;4957702;28;20191;-67
2022/12/22 10:01:59;;;;;;;7.53;3.30;;;;;;;-142.75;100.00;76223.84;4976336;28;20022;-67
2022/12/22 10:04:56;;;;;;;11.00;3.47;;;;;;;-142.75;100.00;76219.91;4985862;28;20553;-70
2022/12/22 10:07:35;;;;;;;10.03;3.13;;;;;;;-142.75;100.00;76215.97;4981529;28;20127;-66
2022/12/22 10:10:04;;;;;;;7.78;2.47;;;;;;;-142.75;100.00;76190.41;4965624;28;21110;-67
2022/12/22 10:12:30;;;;;;;6.80;2.88;;;;;;;-142.75;100.00;76156.94;4974877;28;20039;-68
2022/12/22 10:14:55;;;;;;;5.82;2.63;;;;;;;-142.75;100.00;76184.50;4963210;28;20025;-67
2022/12/22 10:17:32;;;;;;;;;;;;;;;-142.75;100.00;76156.94;4971594;28;20060;-68
2022/12/22 10:20:19;;;;;;;7.45;2.58;;;;;;;-142.75;100.00;76121.50;4970240;28;19913;-69
2022/12/22 10:22:52;;;;;;;6.10;2.30;;;;;;;-142.75;100.00;76160.88;4984605;28;20029;-67
2022/12/22 10:25:37;;;;;;;5.70;2.13;;;;;;;-142.75;100.00;76135.28;4955880;28;20107;-68
2022/12/22 10:28:09;;;;;;;7.03;2.13;;;;;;;-142.75;100.00;76133.31;4957677;28;20636;-66
2022/12/22 10:30:37;;;;;;;7.28;2.75;;;;;;;-142.75;100.00;76127.41;4968561;28;20047;-67
2022/12/22 10:33:14;;;;;;;6.25;2.00;;;;;;;-142.75;100.00;76103.78;4963060;28;20594;-69
2022/12/22 10:35:43;;;;;;;9.70;2.17;;;;;;;-142.75;100.00;76107.72;4969835;28;20037;-68
2022/12/22 10:38:21;;;;;;;7.18;2.15;;;;;;;-142.75;100.00;76101.81;4968635;28;20635;-67
2022/12/22 10:40:51;;;;;;;8.38;1.90;;;;;;;-142.75;100.00;76076.22;4975868;28;20024;-66
2022/12/22 10:43:30;;;;;;;7.22;2.38;;;;;;;-142.75;100.00;76095.91;4976630;28;20029;-67
2022/12/22 10:45:57;;;;;;;10.98;2.25;;;;;;;-142.75;100.00;76097.88;4983892;28;20032;-67
2022/12/22 10:48:36;;;;;;;5.35;1.67;;;;;;;-142.75;100.00;76164.81;4979535;28;20028;-67
2022/12/22 10:51:05;;;;;;;4.65;1.70;;;;;;;-142.75;100.00;76137.25;4976001;28;20554;-67
2022/12/22 10:53:44;;;;;;;7.10;2.05;;;;;;;-142.75;100.00;76111.66;4980809;28;20028;-67
2022/12/22 10:56:29;;;;;;;5.25;1.95;;;;;;;-142.75;100.00;76109.69;4966386;28;20040;-67
2022/12/22 10:59:04;;;;;;;5.65;1.77;;;;;;;-142.75;100.00;76129.38;4967530;28;20119;-67
2022/12/22 11:01:36;;;;;;;4.23;1.70;;;;;;;-142.75;100.00;76133.31;4984788;28;20017;-67
2022/12/22 11:04:24;;;;;;;5.45;1.90;;;;;;;-142.75;100.00;76267.16;4976271;28;20134;-67
2022/12/22 11:06:53;;;;;;;6.10;2.17;;;;;;;-142.75;100.00;76304.56;4971971;28;20132;-67
2022/12/22 11:09:18;;;;;;;8.27;3.35;;;;;;;-142.75;100.00;76418.72;4983557;28;20052;-66
2022/12/22 11:11:50;;;;;;;7.95;3.50;;;;;;;-142.75;100.00;76464.00;4971274;28;20474;-66
2022/12/22 11:14:31;;;;;;;7.93;3.97;;;;;;;-142.75;100.00;76495.50;4979476;28;20032;-66
2022/12/22 11:17:10;;;;;;;9.00;4.30;;;;;;;-142.75;100.00;76568.31;4971028;28;20060;-67
2022/12/22 11:19:47;;;;;;;10.88;4.95;;;;;;;-142.75;100.00;76678.56;4969632;28;20033;-66
2022/12/22 11:22:19;;;;;;;9.85;5.45;;;;;;;-142.75;100.00;76733.69;4979332;28;20580;-66
2022/12/22 11:25:13;;;;;;;13.35;6.95;;;;;;;-142.75;100.00;76763.22;4967576;28;20094;-66
2022/12/22 11:27:39;;;;;;;16.58;7.95;;;;;;;-142.75;100.00;76802.56;4977163;28;20029;-67
2022/12/22 11:30:17;;;;;;;12.27;6.78;;;;;;;-142.75;100.00;76838.00;4976061;28;20328;-66
2022/12/22 11:33:04;;;;;;;13.65;5.93;;;;;;;-142.75;100.00;76845.88;4951125;28;20025;-68
2022/12/22 11:35:43;;;;;;;12.57;6.57;;;;;;;-142.75;100.00;76871.47;4981500;28;20562;-66
2022/12/22 11:38:45;;;;;;;12.55;5.85;;;;;;;-142.75;100.00;76912.81;4961602;28;20037;-67
2022/12/22 11:41:33;;;;;;;13.07;6.57;;;;;;;-142.75;100.00;76960.06;4961686;28;20098;-66
2022/12/22 11:44:26;;;;;;;13.77;6.78;;;;;;;-142.75;100.00;76975.81;4971086;28;20028;-67
2022/12/22 11:47:10;;;;;;;18.90;7.95;;;;;;;-142.75;100.00;76979.75;4964758;28;20040;-66
2022/12/22 11:49:51;;;;;;;16.58;8.23;;;;;;;-142.75;100.00;76983.69;4980102;28;20033;-67
2022/12/22 11:52:38;;;;;;;17.67;8.20;;;;;;;-142.75;100.00;76965.97;4973165;28;20033;-67
2022/12/22 11:55:15;;;;;;;22.60;10.13;;;;;;;-142.75;100.00;76995.50;4972883;28;20033;-67
2022/12/22 11:57:47;;;;;;;23.98;10.02;;;;;;;-142.75;100.00;76985.66;4979224;28;20051;-66
2022/12/22 12:00:17;;;;;;;19.30;9.80;;;;;;;-142.75;100.00;76991.56;4978473;28;20021;-65
2022/12/22 12:03:14;;;;;;;24.30;10.88;;;;;;;-142.75;100.00;76991.56;4963266;28;20017;-67
2022/12/22 12:05:51;;;;;;;19.98;10.05;;;;;;;-142.75;100.00;76983.69;4979034;28;20144;-67
2022/12/22 12:08:38;;;;;;;25.45;12.43;;;;;;;-142.75;100.00;76979.75;4965399;28;20059;-67
2022/12/22 12:11:38;;;;;;;28.05;11.05;;;;;;;-142.75;100.00;76977.78;4963104;28;20568;-67
2022/12/22 12:14:30;;;;;;;24.38;11.73;;;;;;;-142.75;100.00;76977.78;4943965;28;20046;-67
2022/12/22 12:17:01;;;;;;;26.80;11.18;;;;;;;-142.75;100.00;76975.81;4979691;28;20584;-67
2022/12/22 12:20:18;;;;;;;29.35;12.43;;;;;;;-142.75;100.00;76989.59;4977512;28;20483;-67
2022/12/22 12:22:55;;;;;;;25.48;12.07;;;;;;;-142.75;100.00;76991.56;4927124;28;20530;-67
2022/12/22 12:25:48;;;;;;;25.88;12.68;;;;;;;-142.75;100.00;76973.84;4974711;28;20538;-66
2022/12/22 12:28:29;;;;;;;35.63;13.35;;;;;;;-142.75;100.00;76964.00;4962683;28;20107;-67
2022/12/22 12:30:57;;;;;;;27.00;12.20;;;;;;;-142.75;100.00;76950.22;4979157;28;20051;-68
2022/12/22 12:33:47;;;;;;;28.23;12.20;;;;;;;-142.75;100.00;76942.34;4970461;28;20127;-67
2022/12/22 12:36:23;;;;;;;26.63;12.07;;;;;;;-142.75;100.00;76942.34;4970694;28;20028;-67
2022/12/22 12:39:00;;;;;;;25.85;12.38;;;;;;;-142.75;100.00;76969.91;4983399;28;20106;-66
2022/12/22 12:41:36;;;;;;;28.25;13.38;;;;;;;-142.75;100.00;76962.03;4978045;28;20566;-66
2022/12/22 12:44:03;;;;;;;20.75;9.60;;;;;;;-142.75;100.00;76960.06;4971974;28;20037;-69
2022/12/22 12:46:50;;;;;;;30.88;13.52;;;;;;;-142.75;100.00;76928.56;4969278;28;20589;-67
2022/12/22 12:49:33;;;;;;;26.55;13.57;;;;;;;-142.75;100.00;76922.66;4975423;28;20195;-68
2022/12/22 12:52:06;;;;;;;26.10;13.10;;;;;;;-142.75;100.00;76928.56;4974902;28;20099;-70
2022/12/22 12:54:32;;;;;;;24.60;12.80;;;;;;;-142.75;100.00;76934.47;4973283;28;20029;-68
2022/12/22 12:57:08;;;;;;;26.23;12.10;;;;;;;-142.75;100.00;76916.75;4957880;28;20279;-68
2022/12/22 12:59:55;;;;;;;29.48;13.27;;;;;;;-142.75;100.00;76932.50;4968675;28;20026;-68
2022/12/22 13:02:34;;;;;;;31.52;13.63;;;;;;;-142.75;100.00;76904.94;4962083;28;20563;-68
2022/12/22 13:05:11;;;;;;;24.48;13.05;;;;;;;-142.75;100.00;76902.97;4962789;28;20554;-68
2022/12/22 13:08:14;;;;;;;30.33;12.00;;;;;;;-142.75;100.00;76893.13;4965574;28;20044;-68
2022/12/22 13:11:05;;;;;;;24.88;12.48;;;;;;;-142.75;100.00;76879.34;4966751;28;20518;-68
2022/12/22 13:13:32;;;;;;;27.45;13.98;;;;;;;-142.75;100.00;76904.94;4928351;28;20049;-68
2022/12/22 13:16:03;;;;;;;29.58;13.43;;;;;;;-142.75;100.00;76897.06;4949891;28;20099;-68
2022/12/22 13:18:34;;;;;;;26.58;13.70;;;;;;;-142.75;100.00;76889.19;4959458;28;20304;-68
2022/12/22 13:21:25;;;;;;;28.35;13.18;;;;;;;-142.75;100.00;76897.06;4980231;28;20060;-68
2022/12/22 13:23:53;;;;;;;31.17;13.60;;;;;;;-142.75;100.00;76873.44;4977498;28;20056;-67
2022/12/22 13:26:22;;;;;;;24.90;12.23;;;;;;;-142.75;100.00;76889.19;4976920;28;20542;-68
2022/12/22 13:28:53;;;;;;;28.55;14.38;;;;;;;-142.75;100.00;76879.34;4967975;28;20554;-68
2022/12/22 13:31:30;;;;;;;27.48;13.30;;;;;;;-142.75;100.00;76881.31;4967747;28;20029;-67
2022/12/22 13:34:18;;;;;;;;;;;;;;;-142.75;100.00;76879.34;4973671;28;20067;-69
2022/12/22 13:36:44;;;;;;;;;;;;;;;-142.75;100.00;76865.56;4962954;28;19913;-68
2022/12/22 13:39:14;;;;;;;27.98;12.23;;;;;;;-142.75;100.00;76873.44;4973443;28;19940;-69
2022/12/22 13:41:43;;;;;;;25.05;13.27;;;;;;;-142.75;100.00;76885.25;4955037;28;20461;-67
2022/12/22 13:44:28;;;;;;;30.58;14.63;;;;;;;-142.75;100.00;76857.69;4961745;28;20642;-68
2022/12/22 13:47:01;;;;;;;32.42;14.63;;;;;;;-142.75;100.00;76857.69;4975669;28;20029;-67
2022/12/22 13:49:28;;;;;;;28.35;14.65;;;;;;;-142.75;100.00;76877.38;4975620;28;20030;-66
2022/12/22 13:51:53;;;;;;;34.95;17.27;;;;;;;-142.75;100.00;76897.06;4972321;28;20213;-66
2022/12/22 13:54:30;;;;;;;31.23;16.63;;;;;;;-142.75;100.00;76859.66;4977870;28;20414;-67
2022/12/22 13:56:58;;;;;;;36.33;15.82;;;;;;;-142.75;100.00;76857.69;4986650;28;20095;-67
2022/12/22 13:59:27;;;;;;;31.20;14.55;;;;;;;-142.75;100.00;76875.41;4982981;28;20025;-68
2022/12/22 14:01:59;;;;;;;30.85;16.05;;;;;;;-142.75;100.00;76873.44;4975009;28;20029;-67
2022/12/22 14:04:25;;;;;;;37.58;16.25;;;;;;;-142.75;100.00;76881.31;4984438;28;20132;-67
2022/12/22 14:06:50;;;;;;;36.90;15.38;;;;;;;-142.75;100.00;76875.41;4960050;28;20055;-69
2022/12/22 14:09:23;;;;;;;35.80;15.80;;;;;;;-142.75;100.00;76871.47;4953607;28;20383;-68
2022/12/22 14:11:54;;;;;;;34.70;16.00;;;;;;;-142.75;100.00;76849.81;4970832;28;20600;-66
2022/12/22 14:14:27;;;;;;;34.05;16.73;;;;;;;-142.75;100.00;76849.81;4975688;28;20034;-66
2022/12/22 14:16:58;;;;;;;34.60;16.20;;;;;;;-142.75;100.00;76859.66;4969973;28;20016;-68
2022/12/22 14:19:25;;;;;;;35.60;16.55;;;;;;;-142.75;100.00;76836.03;4995011;22;20029;-65
2022/12/22 14:22:10;;;;;;;33.65;17.27;;;;;;;-142.75;100.00;76843.91;4964167;28;20280;-64
2022/12/22 14:24:46;;;;;;;38.25;16.40;;;;;;;-142.75;100.00;76830.13;4955358;28;20021;-65
2022/12/22 14:27:25;;;;;;;36.20;17.58;;;;;;;-142.75;100.00;76832.09;4960813;28;20036;-64
2022/12/22 14:29:51;;;;;;;32.42;16.05;;;;;;;-142.75;100.00;76839.97;4965664;28;20099;-64
2022/12/22 14:32:38;;;;;;;43.08;20.73;;;;;;;-142.75;100.00;76834.06;4965730;28;20025;-63
2022/12/22 14:35:26;;;;;;;34.30;17.38;;;;;;;-142.75;100.00;76824.22;4980940;28;20028;-65
2022/12/22 14:38:12;;;;;;;31.60;17.33;;;;;;;-142.75;100.00;76845.88;4975465;28;20045;-65
2022/12/22 14:40:40;;;;;;;32.40;16.05;;;;;;;-142.75;100.00;76843.91;4965354;28;20029;-64
2022/12/22 14:43:13;;;;;;;36.75;20.98;;;;;;;-142.75;100.00;76798.66;4965741;28;20091;-65
2022/12/22 14:45:39;;;;;;;33.97;16.58;;;;;;;-142.75;100.00;76808.50;4970175;28;20043;-65
2022/12/22 14:48:07;;;;;;;31.77;16.73;;;;;;;-142.75;100.00;76782.91;4980633;28;20028;-65
2022/12/22 14:50:34;;;;;;;31.17;16.35;;;;;;;-142.75;100.00;76806.50;4972145;28;20116;-64
2022/12/22 14:53:03;;;;;;;32.67;17.33;;;;;;;-142.75;100.00;76804.53;4981905;28;20025;-65
2022/12/22 14:55:48;;;;;;;32.45;16.98;;;;;;;-142.75;100.00;76780.94;4984372;28;20079;-65
2022/12/22 14:58:19;;;;;;;31.15;17.45;;;;;;;-142.75;100.00;76792.75;4981732;28;20106;-66